createdAt,value
2019-03-22T00:01:47.932Z,50.73
2019-03-22T00:04:18.120Z,46.33
2019-03-22T00:06:48.301Z,44.90
2019-03-22T00:09:18.809Z,51.37
2019-03-22T00:11:48.996Z,49.58
2019-03-22T00:14:19.463Z,49.33
2019-03-22T00:16:49.730Z,51.33
2019-03-22T00:19:20.259Z,45.87
2019-03-22T00:21:50.455Z,48.85
2019-03-22T00:24:20.628Z,48.28
2019-03-22T00:26:51.044Z,48.50
2019-03-22T00:29:21.225Z,51.80
2019-03-22T00:31:51.427Z,43.90
2019-03-22T00:34:21.631Z,50.12
2019-03-22T00:36:51.884Z,51.02
2019-03-22T00:39:22.067Z,55.03
2019-03-22T00:41:52.249Z,47.40
2019-03-22T00:44:22.425Z,49.98
2019-03-22T00:46:52.588Z,52.58
2019-03-22T00:49:22.790Z,50.60
2019-03-22T00:51:52.951Z,55.67
2019-03-22T00:54:23.699Z,53.75
2019-03-22T00:56:53.894Z,63.53
2019-03-22T00:59:24.202Z,50.80
2019-03-22T01:01:54.385Z,55.03
2019-03-22T01:04:24.576Z,63.10
2019-03-22T01:06:54.778Z,50.85
2019-03-22T01:09:24.963Z,60.85
2019-03-22T01:11:55.137Z,53.20
2019-03-22T01:14:25.311Z,52.35
2019-03-22T01:16:55.492Z,55.77
2019-03-22T01:19:25.692Z,55.90
2019-03-22T01:21:55.841Z,54.70
2019-03-22T01:24:26.044Z,52.80
2019-03-22T01:26:56.203Z,50.55
2019-03-22T01:29:26.502Z,52.40
2019-03-22T01:31:56.668Z,56.85
2019-03-22T01:34:26.880Z,59.50
2019-03-22T01:36:57.104Z,63.03
2019-03-22T01:39:27.295Z,57.30
2019-03-22T01:41:57.495Z,53.73
2019-03-22T01:44:27.677Z,61.37
2019-03-22T01:46:57.997Z,55.95
2019-03-22T01:49:29.296Z,51.37
2019-03-22T01:51:59.560Z,47.78
2019-03-22T01:54:30.238Z,60.20
2019-03-22T01:57:00.536Z,61.73
2019-03-22T01:59:30.720Z,57.50
2019-03-22T02:02:00.889Z,63.30
2019-03-22T02:04:31.088Z,65.12
2019-03-22T02:07:01.264Z,55.27
2019-03-22T02:09:31.477Z,62.73
2019-03-22T02:12:01.732Z,63.15
2019-03-22T02:14:32.004Z,58.28
2019-03-22T02:17:04.188Z,60.80
2019-03-22T02:19:34.431Z,65.22
2019-03-22T02:22:04.804Z,59.70
2019-03-22T02:24:35.130Z,64.90
2019-03-22T02:27:05.447Z,60.20
2019-03-22T02:29:36.667Z,66.12
2019-03-22T02:32:06.976Z,62.07
2019-03-22T02:34:37.243Z,59.33
2019-03-22T02:37:07.492Z,64.37
2019-03-22T02:39:37.863Z,61.60
2019-03-22T02:42:08.301Z,62.17
2019-03-22T02:44:38.572Z,58.92
2019-03-22T02:47:08.881Z,65.10
2019-03-22T02:49:39.083Z,64.37
2019-03-22T02:52:09.318Z,56.33
2019-03-22T02:54:41.347Z,50.95
2019-03-22T02:57:13.179Z,50.60
2019-03-22T02:59:43.483Z,75.20
2019-03-22T03:02:13.895Z,145.15
2019-03-22T03:04:44.144Z,61.30
2019-03-22T03:07:14.557Z,64.83
2019-03-22T03:09:44.845Z,86.73
2019-03-22T03:12:15.116Z,58.50
2019-03-22T03:14:45.565Z,63.68
2019-03-22T03:17:15.886Z,56.98
2019-03-22T03:19:46.123Z,51.80
2019-03-22T03:22:16.472Z,61.70
2019-03-22T03:24:46.724Z,61.25
2019-03-22T03:27:17.842Z,65.53
2019-03-22T03:29:48.081Z,53.17
2019-03-22T03:32:18.349Z,62.80
2019-03-22T03:34:48.613Z,56.53
2019-03-22T03:37:18.903Z,44.67
2019-03-22T03:39:49.242Z,56.30
2019-03-22T03:42:19.550Z,61.43
2019-03-22T03:44:49.803Z,54.83
2019-03-22T03:47:20.168Z,64.67
2019-03-22T03:49:50.418Z,55.90
2019-03-22T03:52:20.823Z,64.62
2019-03-22T03:54:51.397Z,58.37
2019-03-22T03:57:21.646Z,61.97
2019-03-22T03:59:51.897Z,68.57
2019-03-22T04:02:22.249Z,70.53
2019-03-22T04:04:52.606Z,66.15
2019-03-22T04:07:23.833Z,196.53
2019-03-22T04:09:54.099Z,185.17
2019-03-22T04:12:24.349Z,88.67
2019-03-22T04:14:54.601Z,206.67
2019-03-22T04:17:29.409Z,90.15
2019-03-22T04:19:59.736Z,268.30
2019-03-22T04:22:30.026Z,99.33
2019-03-22T04:25:00.520Z,103.00
2019-03-22T04:27:30.920Z,132.30
2019-03-22T04:30:01.351Z,136.77
2019-03-22T04:32:31.674Z,179.00
2019-03-22T04:35:01.928Z,297.43
2019-03-22T04:37:32.178Z,209.13
2019-03-22T04:40:02.431Z,243.20
2019-03-22T04:42:32.669Z,132.70
2019-03-22T04:45:03.160Z,196.83
2019-03-22T04:47:33.646Z,243.85
2019-03-22T04:50:04.350Z,243.63
2019-03-22T04:52:35.048Z,173.70
2019-03-22T04:55:05.676Z,42.05
2019-03-22T04:57:37.074Z,128.00
2019-03-22T05:00:08.616Z,201.77
2019-03-22T05:02:41.112Z,192.70
2019-03-22T05:05:13.204Z,346.07
2019-03-22T05:07:44.611Z,169.60
2019-03-22T05:10:16.625Z,272.10
2019-03-22T05:12:48.511Z,189.80
2019-03-22T05:15:19.731Z,339.77
2019-03-22T05:17:50.440Z,255.57
2019-03-22T05:20:21.835Z,322.93
2019-03-22T05:22:55.259Z,341.10
2019-03-22T05:25:26.879Z,230.37
2019-03-22T05:27:59.867Z,103.90
2019-03-22T05:31:19.052Z,99.83
2019-03-22T05:33:49.308Z,139.80
2019-03-22T05:36:19.620Z,112.13
2019-03-22T05:38:49.917Z,111.67
2019-03-22T05:41:20.158Z,84.73
2019-03-22T05:43:50.400Z,174.73
2019-03-22T05:46:20.737Z,323.03
2019-03-22T05:48:50.984Z,274.20
2019-03-22T05:51:21.240Z,255.70
2019-03-22T05:53:51.547Z,207.43
2019-03-22T05:56:21.877Z,201.23
2019-03-22T05:58:52.148Z,328.17
2019-03-22T06:01:22.596Z,161.30
2019-03-22T06:03:52.816Z,263.90
2019-03-22T06:06:23.059Z,224.97
2019-03-22T06:08:53.546Z,202.40
2019-03-22T06:11:23.948Z,238.40
2019-03-22T06:13:54.492Z,250.90
2019-03-22T06:16:25.044Z,273.53
2019-03-22T06:18:55.284Z,242.33
2019-03-22T06:21:25.624Z,294.87
2019-03-22T06:23:56.295Z,181.00
2019-03-22T06:26:26.725Z,303.90
2019-03-22T06:28:56.973Z,178.53
2019-03-22T06:31:27.253Z,197.97
2019-03-22T06:33:57.596Z,220.53
2019-03-22T06:36:28.191Z,244.47
2019-03-22T06:38:58.420Z,163.57
2019-03-22T06:41:28.857Z,208.20
2019-03-22T06:44:01.381Z,206.43
2019-03-22T06:46:31.704Z,171.43
2019-03-22T06:49:01.948Z,124.37
2019-03-22T06:51:33.264Z,75.73
2019-03-22T06:54:03.576Z,136.47
2019-03-22T06:56:34.395Z,93.07
2019-03-22T06:59:04.712Z,121.57
2019-03-22T07:01:35.108Z,88.10
2019-03-22T07:04:05.487Z,141.70
2019-03-22T07:06:35.828Z,141.63
2019-03-22T07:09:08.992Z,109.67
2019-03-22T07:11:41.711Z,212.75
2019-03-22T07:14:11.664Z,157.73
2019-03-22T07:16:42.988Z,103.47
2019-03-22T07:19:13.310Z,97.17
2019-03-22T07:21:43.808Z,110.83
2019-03-22T07:24:14.062Z,43.20
2019-03-22T07:26:44.320Z,36.03
2019-03-22T07:29:14.557Z,46.10
2019-03-22T07:31:44.809Z,42.95
2019-03-22T07:34:15.112Z,64.95
2019-03-22T07:36:46.957Z,57.08
2019-03-22T07:39:17.496Z,53.25
2019-03-22T07:41:47.776Z,55.60
2019-03-22T07:44:18.028Z,50.80
2019-03-22T07:46:48.444Z,50.15
2019-03-22T07:49:18.683Z,49.35
2019-03-22T07:51:48.959Z,49.77
2019-03-22T07:54:19.237Z,50.35
2019-03-22T07:56:49.647Z,50.28
2019-03-22T07:59:19.941Z,40.15
2019-03-22T08:01:50.309Z,39.38
2019-03-22T08:04:20.629Z,39.42
2019-03-22T08:06:50.882Z,43.48
2019-03-22T08:09:21.219Z,37.65
2019-03-22T08:11:51.488Z,42.83
2019-03-22T08:14:21.729Z,33.85
2019-03-22T08:16:52.207Z,37.67
2019-03-22T08:19:22.568Z,36.83
2019-03-22T08:21:53.087Z,32.90
2019-03-22T08:24:23.315Z,31.70
2019-03-22T08:26:53.602Z,32.33
2019-03-22T08:29:23.856Z,33.60
2019-03-22T08:31:54.977Z,30.70
2019-03-22T08:34:25.281Z,32.67
2019-03-22T08:36:55.682Z,31.62
2019-03-22T08:39:25.937Z,34.08
2019-03-22T08:41:56.177Z,32.23
2019-03-22T08:44:26.499Z,31.02
2019-03-22T08:46:56.789Z,28.87
2019-03-22T08:49:27.311Z,27.77
2019-03-22T08:51:57.730Z,27.62
2019-03-22T08:54:28.001Z,27.85
2019-03-22T08:56:58.237Z,28.90
2019-03-22T08:59:28.525Z,26.20
2019-03-22T09:01:58.767Z,28.92
2019-03-22T09:04:29.085Z,25.27
2019-03-22T09:07:00.423Z,23.10
2019-03-22T09:09:40.918Z,25.37
2019-03-22T09:12:02.697Z,23.20
2019-03-22T09:14:33.034Z,26.42
2019-03-22T09:17:03.355Z,24.72
2019-03-22T09:19:33.597Z,25.02
2019-03-22T09:22:03.928Z,23.67
2019-03-22T09:24:39.294Z,21.65
2019-03-22T09:27:06.155Z,23.27
2019-03-22T09:29:36.506Z,23.38
2019-03-22T09:32:06.848Z,22.37
2019-03-22T09:34:37.110Z,24.23
2019-03-22T09:37:08.985Z,23.05
2019-03-22T09:39:39.446Z,23.52
2019-03-22T09:42:09.861Z,24.77
2019-03-22T09:44:44.639Z,24.02
2019-03-22T09:47:12.280Z,23.05
2019-03-22T09:49:42.740Z,21.50
2019-03-22T09:52:13.094Z,22.07
2019-03-22T09:54:44.431Z,22.98
2019-03-22T09:57:14.652Z,22.73
2019-03-22T09:59:45.045Z,23.18
2019-03-22T10:02:15.335Z,22.30
2019-03-22T10:04:45.591Z,25.48
2019-03-22T10:07:16.044Z,21.40
2019-03-22T10:09:46.372Z,21.23
2019-03-22T10:12:16.621Z,20.30
2019-03-22T10:14:46.919Z,23.52
2019-03-22T11:50:12.732Z,12.85
2019-03-22T11:52:50.139Z,14.68
2019-03-22T12:10:32.824Z,12.50
2019-03-22T12:24:02.653Z,13.35
2019-03-22T12:34:29.275Z,13.22
2019-03-22T12:36:59.528Z,13.35
2019-03-22T12:39:29.760Z,15.18
2019-03-22T13:10:57.541Z,12.90
2019-03-22T13:13:27.787Z,14.70
2019-03-22T13:15:58.019Z,16.65
2019-03-22T13:18:28.263Z,15.35
2019-03-22T13:20:58.513Z,11.12
2019-03-22T13:23:28.772Z,13.38
2019-03-22T15:39:47.163Z,11.08
2019-03-22T15:42:18.667Z,11.33
2019-03-22T15:44:49.315Z,10.60
2019-03-22T15:51:09.436Z,11.65
2019-03-22T15:53:39.803Z,8.63
2019-03-22T15:56:10.112Z,9.65
2019-03-22T15:58:40.329Z,10.88
2019-03-22T16:01:10.659Z,11.40
2019-03-22T16:03:44.352Z,8.65
2019-03-22T16:06:13.000Z,12.47
2019-03-22T16:08:43.331Z,10.30
2019-03-22T16:11:13.586Z,11.63
2019-03-22T16:13:43.802Z,11.33
2019-03-22T16:16:14.508Z,10.32
2019-03-22T16:18:44.794Z,13.55
2019-03-22T16:21:15.115Z,14.18
2019-03-22T16:23:45.348Z,9.68
2019-03-22T16:26:15.744Z,11.75
2019-03-22T16:28:45.962Z,14.43
2019-03-22T16:31:16.282Z,11.80
2019-03-22T16:33:54.026Z,13.85
2019-03-22T16:36:18.468Z,11.12
2019-03-22T16:38:48.781Z,12.07
2019-03-22T16:41:19.011Z,12.58
2019-03-22T16:43:49.231Z,10.85
2019-03-22T16:46:19.523Z,8.15
2019-03-22T16:48:50.770Z,7.62
2019-03-22T16:51:20.995Z,6.83
2019-03-22T16:53:51.231Z,7.90
2019-03-22T16:56:21.448Z,9.65
2019-03-22T16:58:51.676Z,6.78
2019-03-22T17:01:21.996Z,7.95
2019-03-22T17:03:52.334Z,11.53
2019-03-22T17:06:22.638Z,9.00
2019-03-22T17:08:52.868Z,10.55
2019-03-22T17:11:23.098Z,10.68
2019-03-22T17:13:53.348Z,10.28
2019-03-22T17:16:23.661Z,11.03
2019-03-22T17:18:53.953Z,11.53
2019-03-22T17:21:24.177Z,8.10
2019-03-22T17:23:54.443Z,8.00
2019-03-22T17:26:24.667Z,9.33
2019-03-22T17:28:54.903Z,7.33
2019-03-22T17:31:25.138Z,7.58
2019-03-22T17:33:55.364Z,12.35
2019-03-22T17:36:25.587Z,6.78
2019-03-22T17:38:55.901Z,10.20
2019-03-22T17:41:26.140Z,8.48
2019-03-22T17:43:56.439Z,8.00
2019-03-22T17:46:26.747Z,7.17
2019-03-22T17:48:56.975Z,9.03
2019-03-22T17:51:27.225Z,12.25
2019-03-22T17:53:57.479Z,8.98
2019-03-22T17:56:27.692Z,8.73
2019-03-22T17:58:57.915Z,8.25
2019-03-22T18:01:28.192Z,12.95
2019-03-22T18:03:58.424Z,7.70
2019-03-22T18:06:28.668Z,8.13
2019-03-22T18:08:59.968Z,8.78
2019-03-22T18:11:30.196Z,8.25
2019-03-22T18:14:00.445Z,11.00
2019-03-22T18:16:30.658Z,10.82
2019-03-22T18:19:00.912Z,9.78
2019-03-22T18:21:31.208Z,7.47
2019-03-22T18:24:01.445Z,9.75
2019-03-22T18:26:32.631Z,7.35
2019-03-22T18:29:02.923Z,8.48
2019-03-22T18:31:33.164Z,9.20
2019-03-22T18:34:04.672Z,10.95
2019-03-22T18:36:34.896Z,7.17
2019-03-22T18:39:07.004Z,9.25
2019-03-22T18:41:37.224Z,9.78
2019-03-22T18:44:07.575Z,8.78
2019-03-22T18:46:37.827Z,8.60
2019-03-22T18:49:08.162Z,7.92
2019-03-22T18:51:38.419Z,6.30
2019-03-22T18:54:08.778Z,6.92
2019-03-22T18:56:41.928Z,12.25
2019-03-22T18:59:12.158Z,6.95
2019-03-22T19:01:42.388Z,11.60
2019-03-22T19:04:12.608Z,11.80
2019-03-22T19:06:42.844Z,8.70
2019-03-22T19:09:13.128Z,7.97
2019-03-22T19:11:43.669Z,8.78
2019-03-22T19:14:13.895Z,7.80
2019-03-22T19:16:44.130Z,8.95
2019-03-22T19:19:14.475Z,8.10
2019-03-22T19:21:44.765Z,8.15
2019-03-22T19:24:14.993Z,11.10
2019-03-22T19:26:45.279Z,13.48
2019-03-22T19:29:15.539Z,11.78
2019-03-22T19:31:45.859Z,10.58
2019-03-22T19:34:16.095Z,8.48
2019-03-22T19:36:46.349Z,9.43
2019-03-22T19:39:17.642Z,17.65
2019-03-22T19:41:47.903Z,13.50
2019-03-22T19:44:18.120Z,16.57
2019-03-22T19:46:48.472Z,11.68
2019-03-22T19:49:18.698Z,13.65
2019-03-22T19:51:48.954Z,14.75
2019-03-22T19:54:19.180Z,15.72
2019-03-22T19:56:50.182Z,19.37
2019-03-22T19:59:22.064Z,20.90
2019-03-22T20:01:52.396Z,19.65
2019-03-22T20:04:22.699Z,17.45
2019-03-22T20:06:52.969Z,17.25
2019-03-22T20:09:23.200Z,17.15
2019-03-22T20:11:53.482Z,15.98
2019-03-22T20:14:23.663Z,19.70
2019-03-22T20:16:53.911Z,19.80
2019-03-22T20:19:24.134Z,19.85
2019-03-22T20:21:54.449Z,19.62
2019-03-22T20:24:24.711Z,23.20
2019-03-22T20:26:56.029Z,19.67
2019-03-22T20:29:26.322Z,18.05
2019-03-22T20:31:56.662Z,18.15
2019-03-22T20:34:26.931Z,18.90
2019-03-22T20:36:57.249Z,20.88
2019-03-22T20:39:27.476Z,22.85
2019-03-22T20:41:57.727Z,23.50
2019-03-22T20:44:33.826Z,19.07
2019-03-22T20:47:00.239Z,19.27
2019-03-22T20:49:30.536Z,20.75
2019-03-22T20:52:00.799Z,19.98
2019-03-22T20:54:31.184Z,19.90
2019-03-22T20:57:01.441Z,21.17
2019-03-22T20:59:31.687Z,22.32
2019-03-22T21:02:02.046Z,22.07
2019-03-22T21:04:32.292Z,19.30
2019-03-22T21:07:02.563Z,20.97
2019-03-22T21:09:32.927Z,18.67
2019-03-22T21:12:03.997Z,23.12
2019-03-22T21:14:34.433Z,23.73
2019-03-22T21:17:04.750Z,23.83
2019-03-22T21:19:34.981Z,23.35
2019-03-22T21:22:06.400Z,24.43
2019-03-22T21:24:38.357Z,23.30
2019-03-22T21:27:15.533Z,21.77
2019-03-22T21:29:44.514Z,20.97
2019-03-22T21:32:12.580Z,24.92
2019-03-22T21:34:44.157Z,22.10
2019-03-22T21:37:14.819Z,21.02
2019-03-22T21:39:45.063Z,21.57
2019-03-22T21:42:15.323Z,27.50
2019-03-22T21:44:45.609Z,26.45
2019-03-22T21:47:15.956Z,25.27
2019-03-22T21:49:46.292Z,27.80
2019-03-22T21:52:16.540Z,23.62
2019-03-22T21:54:46.833Z,24.72
2019-03-22T21:57:18.133Z,27.22
2019-03-22T21:59:48.411Z,24.43
2019-03-22T22:02:19.007Z,23.47
2019-03-22T22:04:49.244Z,15.85
2019-03-22T22:07:19.455Z,21.65
2019-03-22T22:09:49.755Z,20.27
2019-03-22T22:12:19.984Z,19.70
2019-03-22T22:14:50.226Z,29.98
2019-03-22T22:17:20.503Z,20.12
2019-03-22T22:19:50.847Z,16.55
2019-03-22T22:22:21.068Z,17.45
2019-03-22T22:24:51.310Z,16.50
2019-03-22T22:27:21.535Z,15.32
2019-03-22T22:29:51.766Z,19.62
2019-03-22T22:32:22.087Z,18.15
2019-03-22T22:34:52.319Z,25.27
2019-03-22T22:37:23.703Z,20.62
2019-03-22T22:39:54.012Z,19.32
2019-03-22T22:42:24.296Z,21.27
2019-03-22T22:44:56.733Z,20.77
2019-03-22T22:47:26.948Z,18.05
2019-03-22T22:49:57.190Z,19.35
2019-03-22T22:52:27.391Z,19.37
2019-03-22T22:54:57.748Z,26.75
2019-03-22T22:57:27.963Z,35.75
2019-03-22T22:59:58.271Z,27.15
2019-03-22T23:02:28.598Z,23.38
2019-03-22T23:04:58.832Z,23.42
2019-03-22T23:07:29.130Z,26.17
2019-03-22T23:09:59.373Z,24.32
2019-03-22T23:12:29.608Z,25.30
2019-03-22T23:15:01.309Z,25.27
2019-03-22T23:17:31.803Z,28.20
2019-03-22T23:20:02.155Z,27.37
2019-03-22T23:22:32.400Z,24.77
2019-03-22T23:25:02.643Z,23.12
2019-03-22T23:27:32.908Z,24.32
2019-03-22T23:30:04.228Z,24.70
2019-03-22T23:32:34.534Z,25.77
2019-03-22T23:35:05.289Z,29.02
2019-03-22T23:37:35.608Z,26.97
2019-03-22T23:40:06.978Z,29.45
2019-03-22T23:42:37.447Z,28.65
2019-03-22T23:45:08.643Z,26.90
2019-03-22T23:47:38.970Z,32.08
2019-03-22T23:50:09.950Z,33.33
2019-03-22T23:52:40.215Z,36.68
2019-03-22T23:55:10.523Z,34.03
2019-03-22T23:57:40.876Z,38.75
